Adirondack, New York
Current Conditions -  °F | °C
As of 11:53 PM on Monday 26 Jan 2015 (Local Time) from KGFL Reporting Station
Clear Clear  
Wind Chill:   Ceiling: Unl
Heat Index: 15°   Visibility: 10mi
Dew Point:   Wind: 14mph
Humidity: 56%   Direction: 360°N
Pressure: 29.94"   Gusts: NA
Location:  43.76°N, 73.76°W
Report Text: KGFL 270453Z AUTO 36012KT 10SM CLR M09/M17 A2994 RMK AO2 PRESFR SLP152 T10941167 410721167
Loading
Personal Weather Stations






























Interactive Weather Map New forecast layout! Learn more

10-Day Weather Forecast

Advertisements
Track Severe Weather on mobile